.
WxDataArchive / Data Records for 2006-12-25
2006-12-24 December 2006 2006-12-26

Data Records for Monday, 25 December 2006

Time	Temp	Chill	HIndex	Humid	Dewpt	 Wind 	HiWind	WindDir	Rain 	Barom 
-----	----	-----	------	-----	-----	------	------	-------	-----	----- 
00:00	30.3	30.3	30.3	96	29.3	0	0	---	0.00	30.162 
00:05	30.3	30.3	30.3	96	29.3	0	0	---	0.00	30.162 
00:10	30.4	30.4	30.4	96	29.4	0	0	---	0.00	30.162 
00:15	30.6	30.6	30.6	96	29.6	0	0	---	0.00	30.149 
00:20	30.6	30.6	30.6	96	29.6	0	0	---	0.00	30.149 
00:25	30.6	30.6	30.6	96	29.6	0	0	---	0.00	30.149 
00:30	30.6	30.6	30.6	96	29.6	0	0	---	0.00	30.141 
00:35	30.7	30.7	30.7	96	29.7	0	0	---	0.00	30.141 
00:40	30.9	30.9	30.9	96	29.9	0	0	---	0.00	30.141 
00:45	30.9	30.9	30.9	96	29.9	0	0	---	0.00	30.126 
00:50	30.9	30.9	30.9	96	29.9	0	0	---	0.00	30.126 
00:55	30.9	30.9	30.9	96	29.9	0	0	---	0.00	30.126 
01:00	30.7	30.7	30.7	96	29.7	0	0	---	0.00	30.116 
01:05	30.9	30.9	30.9	96	29.9	0	0	---	0.00	30.116 
01:10	30.9	30.9	30.9	96	29.9	0	0	---	0.00	30.116 
01:15	31.0	31.0	31.0	96	30.0	0	0	---	0.00	30.109 
01:20	31.2	31.2	31.2	96	30.2	0	0	---	0.00	30.109 
01:25	31.3	31.3	31.3	96	30.3	0	0	---	0.00	30.109 
01:30	31.3	31.3	31.3	96	30.3	0	0	---	0.00	30.097 
01:35	31.5	31.5	31.5	96	30.5	0	1	270	0.00	30.097 
01:40	31.8	31.8	31.8	96	30.8	0	0	---	0.00	30.097 
01:45	31.9	31.9	31.9	96	30.9	0	1	270	0.00	30.083 
01:50	32.1	32.1	32.1	96	31.1	0	1	270	0.00	30.083 
01:55	32.2	32.2	32.2	96	31.2	0	1	270	0.00	30.083 
02:00	32.4	32.4	32.4	96	31.4	0	1	270	0.00	30.074 
02:05	32.5	32.5	32.5	96	31.5	0	1	270	0.00	30.074 
02:10	32.5	32.5	32.5	96	31.5	0	1	270	0.00	30.074 
02:15	32.5	32.5	32.5	96	31.5	0	1	270	0.00	30.062 
02:20	32.7	32.7	32.7	96	31.7	0	1	270	0.00	30.062 
02:25	32.7	32.7	32.7	96	31.7	0	2	270	0.00	30.062 
02:30	32.8	32.8	32.8	96	31.8	0	2	270	0.00	30.061 
02:35	32.8	32.8	32.8	96	31.8	0	1	270	0.00	30.061 
02:40	32.8	32.8	32.8	96	31.8	1	2	270	0.00	30.061 
02:45	32.8	32.8	32.8	96	31.8	1	2	270	0.00	30.057 
02:50	32.8	32.8	32.8	96	31.8	0	1	270	0.00	30.057 
02:55	32.8	32.8	32.8	96	31.8	0	2	270	0.00	30.057 
03:00	32.8	32.8	32.8	96	31.8	0	1	270	0.00	30.046 
03:05	32.8	32.8	32.8	96	31.8	0	1	270	0.00	30.046 
03:10	32.9	32.9	32.9	96	31.9	0	1	270	0.00	30.046 
03:15	32.8	32.8	32.8	96	31.8	0	0	---	0.00	30.042 
03:20	32.8	32.8	32.8	96	31.8	0	1	270	0.00	30.042 
03:25	32.9	32.9	32.9	96	31.9	0	1	270	0.00	30.042 
03:30	33.1	33.1	33.1	96	32.1	0	2	270	0.00	30.036 
03:35	33.2	33.2	33.2	96	32.2	0	1	270	0.00	30.036 
03:40	33.2	33.2	33.2	96	32.2	0	2	270	0.00	30.036 
03:45	33.2	33.2	33.2	96	32.2	1	2	270	0.00	30.034 
03:50	33.4	33.4	33.4	96	32.4	0	2	270	0.00	30.034 
03:55	33.4	33.4	33.4	96	32.4	1	2	270	0.00	30.034 
04:00	33.4	33.4	33.4	96	32.4	1	3	270	0.00	30.022 
04:05	33.4	33.4	33.4	96	32.4	1	2	270	0.00	30.022 
04:10	33.4	33.4	33.4	96	32.4	0	1	270	0.00	30.022 
04:15	33.4	33.4	33.4	96	32.4	0	0	---	0.00	30.033 
04:20	33.2	33.2	33.2	96	32.2	0	1	270	0.00	30.033 
04:25	33.2	33.2	33.2	96	32.2	0	1	270	0.00	30.033 
04:30	33.2	33.2	33.2	96	32.2	0	1	270	0.00	30.023 
04:35	33.2	33.2	33.2	96	32.2	0	0	---	0.00	30.023 
04:40	33.2	33.2	33.2	96	32.2	0	1	270	0.00	30.023 
04:45	33.2	33.2	33.2	96	32.2	0	0	---	0.00	30.019 
04:50	33.2	33.2	33.2	96	32.2	0	1	270	0.00	30.019 
04:55	33.2	33.2	33.2	96	32.2	1	2	270	0.00	30.019 
05:00	33.4	33.4	33.4	96	32.4	0	1	270	0.00	30.002 
05:05	33.4	33.4	33.4	96	32.4	0	1	270	0.00	30.002 
05:10	33.4	33.4	33.4	96	32.4	0	0	---	0.00	30.002 
05:15	33.4	33.4	33.4	96	32.4	0	1	270	0.00	29.996 
05:20	33.4	33.4	33.4	96	32.4	0	1	270	0.00	29.996 
05:25	33.4	33.4	33.4	96	32.4	0	1	292	0.00	29.996 
05:30	33.5	33.5	33.5	96	32.5	0	1	315	0.00	29.990 
05:35	33.5	33.5	33.5	96	32.5	0	0	---	0.00	29.990 
05:40	33.5	33.5	33.5	96	32.5	0	1	315	0.00	29.990 
05:45	33.5	33.5	33.5	96	32.5	0	1	315	0.00	29.990 
05:50	33.7	33.7	33.7	96	32.7	1	3	22	0.00	29.990 
05:55	33.7	33.7	33.7	96	32.7	2	3	90	0.00	29.990 
06:00	33.5	33.5	33.5	96	32.5	1	3	90	0.00	29.982 
06:05	33.5	33.5	33.5	95	32.2	2	3	90	0.00	29.982 
06:10	33.5	33.5	33.5	95	32.2	1	3	112	0.00	29.982 
06:15	33.5	33.5	33.5	95	32.2	1	5	90	0.00	29.974 
06:20	33.7	33.7	33.7	95	32.4	1	3	90	0.00	29.974 
06:25	33.7	33.7	33.7	95	32.4	2	3	90	0.00	29.974 
06:30	33.7	33.7	33.7	95	32.4	1	3	90	0.00	29.969 
06:35	33.7	33.7	33.7	95	32.4	0	3	112	0.00	29.969 
06:40	33.7	33.7	33.7	95	32.4	0	2	112	0.00	29.969 
06:45	33.7	33.7	33.7	95	32.4	0	0	---	0.00	29.970 
06:50	33.5	33.5	33.5	95	32.2	0	0	---	0.00	29.970 
06:55	33.5	33.5	33.5	95	32.2	0	2	112	0.00	29.970 
07:00	33.5	33.5	33.5	95	32.2	1	3	112	0.00	29.952 
07:05	33.7	33.7	33.7	95	32.4	1	2	112	0.00	29.952 
07:10	33.5	33.5	33.5	95	32.2	1	2	112	0.00	29.952 
07:15	33.5	33.5	33.5	95	32.2	0	2	112	0.00	29.963 
07:20	33.5	33.5	33.5	95	32.2	0	1	112	0.00	29.963 
07:25	33.5	33.5	33.5	95	32.2	0	1	112	0.00	29.963 
07:30	33.5	33.5	33.5	95	32.2	0	1	112	0.00	29.963 
07:35	33.5	33.5	33.5	95	32.2	0	1	112	0.00	29.963 
07:40	33.5	33.5	33.5	95	32.2	0	0	---	0.00	29.963 
07:45	33.5	33.5	33.5	95	32.2	0	0	---	0.00	29.964 
07:50	33.5	33.5	33.5	95	32.2	0	0	---	0.00	29.964 
07:55	33.5	33.5	33.5	95	32.2	0	1	112	0.00	29.964 
08:00	33.5	33.5	33.5	95	32.2	0	1	112	0.00	29.961 
08:05	33.5	33.5	33.5	95	32.2	0	1	112	0.00	29.961 
08:10	33.5	33.5	33.5	95	32.2	0	0	---	0.00	29.961 
08:15	33.5	33.5	33.5	95	32.2	0	0	---	0.00	29.965 
08:20	33.5	33.5	33.5	95	32.2	0	0	---	0.00	29.965 
08:25	33.5	33.5	33.5	95	32.2	0	0	---	0.00	29.965 
08:30	33.5	33.5	33.5	95	32.2	0	0	---	0.00	29.948 
08:35	33.5	33.5	33.5	95	32.2	0	0	---	0.00	29.948 
08:40	33.5	33.5	33.5	95	32.2	0	0	---	0.00	29.948 
08:45	33.5	33.5	33.5	95	32.2	0	1	112	0.00	29.952 
08:50	33.7	33.7	33.7	95	32.4	0	0	---	0.00	29.952 
08:55	33.7	33.7	33.7	95	32.4	0	0	---	0.00	29.952 
09:00	33.8	33.8	33.8	95	32.5	0	0	---	0.00	29.947 
09:05	33.8	33.8	33.8	95	32.5	0	1	112	0.00	29.947 
09:10	34.0	34.0	34.0	95	32.7	0	1	112	0.00	29.947 
09:15	34.0	34.0	34.0	95	32.7	0	1	112	0.00	29.936 
09:20	34.1	34.1	34.1	95	32.8	0	1	112	0.00	29.936 
09:25	34.1	34.1	34.1	95	32.8	0	2	112	0.00	29.936 
09:30	34.3	34.3	34.3	95	33.0	0	1	112	0.00	29.926 
09:35	34.4	34.4	34.4	95	33.1	0	2	112	0.00	29.926 
09:40	34.4	34.4	34.4	95	33.1	0	1	112	0.00	29.926 
09:45	34.6	34.6	34.6	95	33.3	0	2	112	0.00	29.931 
09:50	34.9	34.9	34.9	95	33.6	1	2	112	0.00	29.931 
09:55	34.9	34.9	34.9	94	33.4	1	2	112	0.00	29.931 
10:00	35.0	35.0	35.0	93	33.2	1	4	112	0.00	29.921 
10:05	35.0	35.0	35.0	92	32.9	1	3	90	0.00	29.921 
10:10	35.2	35.2	35.2	92	33.1	2	4	90	0.00	29.921 
10:15	35.3	35.3	35.3	92	33.2	1	3	112	0.00	29.917 
10:20	35.5	35.5	35.5	92	33.4	1	3	68	0.00	29.917 
10:25	35.5	35.5	35.5	91	33.1	0	3	68	0.00	29.917 
10:30	35.6	35.6	35.6	91	33.2	0	2	68	0.00	29.903 
10:35	35.8	35.8	35.8	91	33.4	1	2	68	0.00	29.903 
10:40	35.9	35.9	35.9	91	33.5	0	2	68	0.00	29.903 
10:45	35.9	35.9	35.9	90	33.3	0	3	90	0.00	29.892 
10:50	36.0	36.0	36.0	90	33.4	0	2	90	0.00	29.892 
10:55	36.0	36.0	36.0	89	33.1	1	3	68	0.00	29.892 
11:00	36.2	36.2	36.2	89	33.3	0	1	68	0.00	29.869 
11:05	36.3	36.3	36.3	89	33.4	0	2	68	0.00	29.869 
11:10	36.5	36.5	36.5	88	33.3	0	2	68	0.00	29.869 
11:15	36.6	36.6	36.6	88	33.4	0	2	68	0.00	29.854 
11:20	36.9	36.9	36.9	88	33.7	0	2	90	0.00	29.854 
11:25	37.3	37.3	37.3	88	34.1	1	3	68	0.00	29.854 
11:30	37.8	37.8	37.8	87	34.3	1	4	112	0.00	29.838 
11:35	38.0	38.0	38.0	85	33.9	1	3	68	0.00	29.838 
11:40	38.2	38.2	38.2	85	34.1	0	3	22	0.00	29.838 
11:45	38.2	38.2	38.2	84	33.8	1	2	45	0.00	29.830 
11:50	38.5	38.5	38.5	84	34.1	0	3	90	0.00	29.830 
11:55	38.8	38.8	38.8	83	34.1	1	5	45	0.00	29.830 
12:00	38.9	38.9	38.9	82	33.9	1	4	45	0.00	29.806 
12:05	38.9	38.9	38.9	81	33.6	2	7	45	0.00	29.806 
12:10	38.9	38.9	38.9	81	33.6	2	4	90	0.00	29.806 
12:15	39.1	39.1	39.1	81	33.8	2	6	90	0.00	29.788 
12:20	39.2	39.2	39.2	81	33.9	2	6	90	0.00	29.788 
12:25	39.3	39.3	39.3	80	33.7	3	10	112	0.00	29.788 
12:30	39.5	39.5	39.5	81	34.2	1	4	45	0.00	29.783 
12:35	39.6	39.6	39.6	81	34.3	2	5	112	0.00	29.783 
12:40	39.8	39.8	39.8	80	34.1	3	10	112	0.00	29.783 
12:45	39.8	39.8	39.8	79	33.8	1	5	68	0.00	29.770 
12:50	39.8	39.8	39.8	80	34.1	2	5	90	0.00	29.770 
12:55	39.6	39.6	39.6	80	33.9	3	10	90	0.00	29.770 
13:00	39.3	36.5	39.3	81	34.0	4	7	112	0.00	29.756 
13:05	39.1	39.1	39.1	82	34.1	2	7	90	0.00	29.756 
13:10	39.1	39.1	39.1	83	34.4	2	7	112	0.00	29.756 
13:15	38.9	38.9	38.9	82	33.9	2	7	90	0.00	29.748 
13:20	38.9	38.9	38.9	82	33.9	2	5	112	0.00	29.748 
13:25	38.8	38.8	38.8	82	33.8	2	4	112	0.00	29.748 
13:30	38.6	38.6	38.6	82	33.6	1	3	90	0.00	29.747 
13:35	38.5	38.5	38.5	83	33.8	3	6	112	0.00	29.747 
13:40	38.5	38.5	38.5	84	34.1	1	5	112	0.00	29.747 
13:45	38.5	38.5	38.5	84	34.1	0	1	68	0.00	29.741 
13:50	38.5	38.5	38.5	84	34.1	1	3	112	0.00	29.741 
13:55	38.5	38.5	38.5	84	34.1	1	2	45	0.00	29.741 
14:00	38.3	38.3	38.3	85	34.2	1	3	112	0.00	29.741 
14:05	38.3	38.3	38.3	85	34.2	0	2	112	0.00	29.741 
14:10	38.3	38.3	38.3	85	34.2	0	2	135	0.00	29.741 
14:15	38.3	38.3	38.3	86	34.5	0	1	45	0.00	29.739 
14:20	38.2	38.2	38.2	87	34.7	0	1	45	0.00	29.739 
14:25	38.0	38.0	38.0	87	34.5	0	1	45	0.01	29.739 
14:30	37.9	37.9	37.9	88	34.7	0	2	45	0.00	29.732 
14:35	37.9	37.9	37.9	88	34.7	0	2	22	0.01	29.732 
14:40	37.9	37.9	37.9	89	35.0	0	2	22	0.00	29.732 
14:45	37.8	37.8	37.8	89	34.9	0	1	22	0.01	29.729 
14:50	37.8	37.8	37.8	89	34.9	0	3	90	0.00	29.729 
14:55	37.8	37.8	37.8	90	35.1	0	1	90	0.01	29.729 
15:00	37.6	37.6	37.6	91	35.2	0	2	90	0.01	29.694 
15:05	37.5	37.5	37.5	91	35.1	0	1	45	0.01	29.694 
15:10	37.3	37.3	37.3	91	34.9	1	3	45	0.00	29.694 
15:15	37.2	37.2	37.2	91	34.8	0	2	22	0.01	29.705 
15:20	37.0	37.0	37.0	92	34.9	1	2	22	0.00	29.705 
15:25	36.9	36.9	36.9	92	34.8	0	3	22	0.00	29.705 
15:30	36.9	36.9	36.9	92	34.8	0	3	22	0.01	29.700 
15:35	36.8	36.8	36.8	92	34.7	1	2	22	0.00	29.700 
15:40	36.6	36.6	36.6	92	34.5	0	2	315	0.01	29.700 
15:45	36.3	36.3	36.3	92	34.2	0	2	338	0.01	29.690 
15:50	36.0	36.0	36.0	92	33.9	0	2	338	0.01	29.690 
15:55	35.8	35.8	35.8	92	33.7	1	3	315	0.01	29.690 
16:00	35.2	35.2	35.2	92	33.1	1	4	315	0.01	29.691 
16:05	34.9	34.9	34.9	92	32.8	1	3	338	0.01	29.691 
16:10	34.7	34.7	34.7	92	32.6	0	1	22	0.01	29.691 
16:15	34.7	34.7	34.7	93	32.9	0	2	22	0.00	29.689 
16:20	34.6	34.6	34.6	93	32.8	0	2	338	0.01	29.689 
16:25	34.6	34.6	34.6	93	32.8	0	1	338	0.01	29.689 
16:30	34.7	34.7	34.7	93	32.9	0	2	0	0.01	29.695 
16:35	34.7	34.7	34.7	94	33.2	0	2	0	0.00	29.695 
16:40	34.7	34.7	34.7	94	33.2	0	1	0	0.01	29.695 
16:45	34.9	34.9	34.9	94	33.4	0	3	45	0.00	29.697 
16:50	34.9	34.9	34.9	94	33.4	0	2	45	0.01	29.697 
16:55	34.9	34.9	34.9	94	33.4	0	1	45	0.01	29.697 
17:00	34.9	34.9	34.9	95	33.6	0	2	45	0.00	29.688 
17:05	35.0	35.0	35.0	95	33.7	0	2	45	0.01	29.688 
17:10	35.0	35.0	35.0	95	33.7	1	3	68	0.01	29.688 
17:15	35.0	35.0	35.0	95	33.7	1	4	90	0.00	29.680 
17:20	35.2	35.2	35.2	95	33.9	1	3	68	0.01	29.680 
17:25	35.2	35.2	35.2	95	33.9	0	2	68	0.00	29.680 
17:30	35.2	35.2	35.2	95	33.9	0	1	68	0.01	29.681 
17:35	35.2	35.2	35.2	95	33.9	0	2	68	0.00	29.681 
17:40	35.3	35.3	35.3	95	34.0	0	3	112	0.00	29.681 
17:45	35.3	35.3	35.3	95	34.0	1	4	22	0.01	29.678 
17:50	35.5	35.5	35.5	95	34.2	1	3	68	0.00	29.678 
17:55	35.5	35.5	35.5	95	34.2	1	4	68	0.00	29.678 
18:00	35.6	35.6	35.6	95	34.3	1	3	45	0.01	29.680 
18:05	35.6	35.6	35.6	95	34.3	0	2	45	0.00	29.680 
18:10	35.8	35.8	35.8	95	34.5	1	3	90	0.00	29.680 
18:15	35.8	35.8	35.8	95	34.5	1	3	90	0.00	29.684 
18:20	35.8	35.8	35.8	95	34.5	0	3	90	0.01	29.684 
18:25	35.8	35.8	35.8	95	34.5	0	4	112	0.00	29.684 
18:30	35.8	35.8	35.8	95	34.5	0	2	68	0.00	29.681 
18:35	35.8	35.8	35.8	95	34.5	0	2	68	0.01	29.681 
18:40	35.9	35.9	35.9	95	34.6	1	3	68	0.00	29.681 
18:45	35.9	35.9	35.9	95	34.6	1	4	112	0.00	29.677 
18:50	35.9	35.9	35.9	95	34.6	1	6	45	0.01	29.677 
18:55	35.9	35.9	35.9	95	34.6	1	3	68	0.00	29.677 
19:00	35.8	35.8	35.8	95	34.5	1	5	22	0.00	29.675 
19:05	35.8	35.8	35.8	95	34.5	1	4	112	0.01	29.675 
19:10	35.8	35.8	35.8	95	34.5	1	4	112	0.00	29.675 
19:15	35.6	35.6	35.6	95	34.3	1	5	90	0.00	29.671 
19:20	35.6	35.6	35.6	95	34.3	1	5	45	0.00	29.671 
19:25	35.5	35.5	35.5	95	34.2	1	4	90	0.01	29.671 
19:30	35.5	35.5	35.5	95	34.2	1	7	135	0.00	29.666 
19:35	35.5	35.5	35.5	95	34.2	1	3	90	0.00	29.666 
19:40	35.5	35.5	35.5	95	34.2	1	2	68	0.00	29.666 
19:45	35.5	35.5	35.5	95	34.2	0	3	45	0.00	29.667 
19:50	35.5	35.5	35.5	95	34.2	0	2	112	0.00	29.667 
19:55	35.5	35.5	35.5	95	34.2	0	2	0	0.00	29.667 
20:00	35.5	35.5	35.5	95	34.2	0	1	0	0.01	29.664 
20:05	35.5	35.5	35.5	95	34.2	0	1	0	0.00	29.664 
20:10	35.5	35.5	35.5	95	34.2	1	2	45	0.00	29.664 
20:15	35.5	35.5	35.5	95	34.2	1	5	45	0.00	29.653 
20:20	35.5	35.5	35.5	95	34.2	0	2	45	0.00	29.653 
20:25	35.3	35.3	35.3	95	34.0	0	2	0	0.00	29.653 
20:30	35.3	35.3	35.3	95	34.0	0	2	0	0.00	29.652 
20:35	35.3	35.3	35.3	95	34.0	0	3	45	0.00	29.652 
20:40	35.3	35.3	35.3	95	34.0	0	3	292	0.00	29.652 
20:45	35.3	35.3	35.3	95	34.0	0	2	0	0.00	29.651 
20:50	35.3	35.3	35.3	95	34.0	1	5	338	0.00	29.651 
20:55	35.2	35.2	35.2	95	33.9	1	4	338	0.00	29.651 
21:00	35.2	35.2	35.2	95	33.9	1	3	68	0.00	29.640 
21:05	35.2	35.2	35.2	95	33.9	1	5	45	0.00	29.640 
21:10	35.0	35.0	35.0	95	33.7	0	2	90	0.00	29.640 
21:15	35.0	35.0	35.0	95	33.7	2	6	0	0.00	29.630 
21:20	34.9	34.9	34.9	95	33.6	1	3	45	0.00	29.630 
21:25	34.9	34.9	34.9	95	33.6	1	2	45	0.00	29.630 
21:30	34.7	34.7	34.7	95	33.4	1	5	22	0.01	29.620 
21:35	34.7	34.7	34.7	95	33.4	1	3	0	0.00	29.620 
21:40	34.7	34.7	34.7	95	33.4	1	3	22	0.00	29.620 
21:45	34.7	34.7	34.7	95	33.4	1	6	22	0.00	29.610 
21:50	34.7	34.7	34.7	95	33.4	1	6	22	0.00	29.610 
21:55	34.6	34.6	34.6	95	33.3	1	4	292	0.00	29.610 
22:00	34.4	34.4	34.4	95	33.1	1	4	22	0.01	29.613 
22:05	34.1	34.1	34.1	94	32.6	0	3	338	0.00	29.613 
22:10	33.8	33.8	33.8	94	32.3	0	2	22	0.00	29.613 
22:15	33.5	33.5	33.5	94	32.0	1	4	0	0.00	29.612 
22:20	33.5	33.5	33.5	94	32.0	0	3	22	0.00	29.612 
22:25	33.4	33.4	33.4	95	32.1	0	3	338	0.00	29.612 
22:30	33.4	33.4	33.4	95	32.1	1	3	22	0.00	29.605 
22:35	33.5	33.5	33.5	95	32.2	1	3	22	0.00	29.605 
22:40	33.7	33.7	33.7	95	32.4	1	4	45	0.00	29.605 
22:45	33.7	33.7	33.7	95	32.4	0	2	0	0.01	29.598 
22:50	33.8	33.8	33.8	95	32.5	1	5	22	0.00	29.598 
22:55	34.0	34.0	34.0	96	33.0	1	6	0	0.00	29.598 
23:00	34.0	34.0	34.0	96	33.0	1	3	22	0.00	29.595 
23:05	34.1	34.1	34.1	96	33.1	1	4	45	0.00	29.595 
23:10	34.3	34.3	34.3	96	33.3	1	3	45	0.00	29.595 
23:15	34.3	34.3	34.3	96	33.3	1	3	22	0.00	29.595 
23:20	34.4	34.4	34.4	96	33.4	1	4	0	0.01	29.595 
23:25	34.4	34.4	34.4	96	33.4	1	3	0	0.00	29.595 
23:30	34.3	34.3	34.3	95	33.0	1	3	315	0.01	29.595 
23:35	34.1	34.1	34.1	95	32.8	1	3	315	0.00	29.595 
23:40	33.8	33.8	33.8	95	32.5	0	3	0	0.00	29.595 
23:45	33.5	33.5	33.5	95	32.2	0	2	0	0.01	29.595 
23:50	33.4	33.4	33.4	95	32.1	0	2	338	0.00	29.595 
23:55	33.1	33.1	33.1	95	31.8	0	2	338	0.00	29.595 

CoCoRaHS
IN-AL-39
A2 Web Hosting
Creative Commons License
GoDaddy
Look for:

loaded 2017-10-18 22:23:37 • last modified 2010-11-18 10:43:29
Privacy PolicyDisclaimer
• wx.awcolley.com is powered by PmWiki v.2002016 •
• all content (unless otherwise noted) © 2017 A W Colley